Murray, NE

6:13 PM CDT on July 01, 2015 (GMT -0500)
Dixon's Landing at Beaver Lake | | Change Station
CLOSE
Current Station
Personal Weather Station
Location: Murray, NE
Elevation: 1040 ft
Nearby Weather Stations

Elev 1040 ft 40.93 °N, 95.89 °W | Updated 23 seconds ago

Mostly Cloudy
Mostly Cloudy
81.3 °F
Feels Like 86 °F
N
1.0
Wind Variable Wind from ENE

Today
High -- | Low -- °F
--% Chance of Precip.
Yesterday
High -- | Low -- °F
Precip. -- in
5:55 AM 8:59 PM
Full, 100% visible
Pressure 29.85 in
Visibility 10.0 miles
Clouds Mostly Cloudy 5500 ft
Heat Index 86 °F
Dew Point 72 °F
Humidity 73%
Rainfall 0.29 in
Snow Depth Not available.
UV 2 out of 12
Pollen .50 out of 12
Air Quality Not available.
Flu Activity Not available.
METAR KPMV 012255Z AUTO 06009KT 10SM BKN055 28/21 A2985 RMK AO2 T02790205

More Conditions Fewer Conditions

Pressure 29.85 in
Visibility 10.0 miles
Clouds Mostly Cloudy 5500 ft
Heat Index 86 °F
Dew Point 72 °F
Humidity 73%
Rainfall 0.29 in
Snow Depth Not available.
UV 2 out of 12
Pollen .50 out of 12
Air Quality Not available.
Flu Activity Not available.
METAR KPMV 012255Z AUTO 06009KT 10SM BKN055 28/21 A2985 RMK AO2 T02790205

More Conditions Fewer Conditions

10-Day Weather Forecast

×

Almanac

Astronomy

Jul. 01, 2015 Rise Set
Actual Time
Civil Twilight
Nautical Twilight
Astronomical Twilight
Moon
Length of Visible Light
Length of Day
Tomorrow will be .
, % of the Moon is Illuminated

Today's Extremes

State Highs State Lows

Community

WunderPhotos

Upload Photos

1,834,335 photos uploaded!

WunderBlogs® & News

Nearby

Air Quality

  Air Quality AQ Index Pollutant
Not available.

Snow Depth

Station Depth Elevation

Earthquake Activity

City Distance Mag. Time & Date
Minimum magnitude displayed is 2.5.

Coastal Water Temperatures

Place Temperature

Stations

Nearby Weather Stations

Station Location Temp. Windchill Dew Point Humidity Wind Precip. Elev Updated Type